Hookstown, Pennsylvania
Current Conditions -  °F | °C
As of 9:47 AM on Friday 31 Oct 2014 (Local Time) from KBVI Reporting Station
Overcast Overcast  
Wind Chill: 40°   Ceiling: 4900
Heat Index: 43°   Visibility: 10mi
Dew Point: 37°   Wind: 5mph
Humidity: 81%   Direction: 170°S
Pressure: 29.94"   Gusts: NA
Location:  40.6°N, 80.47°W
Report Text: KBVI 311347Z 17004KT 10SM OVC049 06/03 A2994
Loading
Personal Weather Stations






























Interactive Weather Map
Tropical Storm Tracking
New forecast layout! Learn more

10-Day Weather Forecast

Advertisements
Track Severe Weather on mobile